createdAt,value
2023-01-19T00:01:37.541Z,15.75
2023-01-19T00:04:05.209Z,16.48
2023-01-19T00:06:32.901Z,19.05
2023-01-19T00:09:00.507Z,16.60
2023-01-19T00:11:28.155Z,15.68
2023-01-19T00:13:55.727Z,15.30
2023-01-19T00:16:24.717Z,15.55
2023-01-19T00:18:53.042Z,16.25
2023-01-19T00:21:21.636Z,15.13
2023-01-19T00:23:52.381Z,14.23
2023-01-19T00:26:22.145Z,15.15
2023-01-19T00:28:50.708Z,15.35
2023-01-19T00:31:20.466Z,16.88
2023-01-19T00:33:52.429Z,14.82
2023-01-19T00:36:20.551Z,16.02
2023-01-19T00:38:48.127Z,14.25
2023-01-19T00:41:15.794Z,15.40
2023-01-19T00:43:43.438Z,16.58
2023-01-19T00:46:11.658Z,15.05
2023-01-19T00:48:39.365Z,15.20
2023-01-19T00:51:08.283Z,15.00
2023-01-19T00:53:35.874Z,14.80
2023-01-19T00:56:03.435Z,13.27
2023-01-19T00:58:30.995Z,12.93
2023-01-19T01:01:03.575Z,15.87
2023-01-19T01:03:31.544Z,15.27
2023-01-19T01:05:59.255Z,15.48
2023-01-19T01:08:28.316Z,14.48
2023-01-19T01:10:56.073Z,17.07
2023-01-19T01:13:26.340Z,14.47
2023-01-19T01:15:56.708Z,15.27
2023-01-19T01:18:25.216Z,15.55
2023-01-19T01:20:55.269Z,14.93
2023-01-19T01:23:23.803Z,15.50
2023-01-19T01:25:52.778Z,14.50
2023-01-19T01:28:20.425Z,13.77
2023-01-19T01:30:48.080Z,15.10
2023-01-19T01:33:15.640Z,17.88
2023-01-19T01:36:03.317Z,18.33
2023-01-19T01:38:30.883Z,15.77
2023-01-19T01:40:59.784Z,16.65
2023-01-19T01:43:43.542Z,17.02
2023-01-19T01:46:11.230Z,17.38
2023-01-19T01:48:41.418Z,17.52
2023-01-19T01:51:27.193Z,17.93
2023-01-19T01:54:07.025Z,17.08
2023-01-19T01:56:40.432Z,18.02
2023-01-19T01:59:12.241Z,17.33
2023-01-19T02:01:57.778Z,16.92
2023-01-19T02:04:26.084Z,18.38
2023-01-19T02:07:11.029Z,16.48
2023-01-19T02:09:56.400Z,14.90
2023-01-19T02:12:43.116Z,14.43
2023-01-19T02:15:18.462Z,16.85
2023-01-19T02:17:46.224Z,16.90
2023-01-19T02:20:14.751Z,18.23
2023-01-19T02:22:48.881Z,15.85
2023-01-19T02:25:19.965Z,17.13
2023-01-19T02:27:48.531Z,16.17
2023-01-19T02:30:17.539Z,16.23
2023-01-19T02:32:45.256Z,17.55
2023-01-19T02:35:13.675Z,15.88
2023-01-19T02:37:44.216Z,16.67
2023-01-19T02:40:15.514Z,16.08
2023-01-19T02:42:47.910Z,15.25
2023-01-19T02:45:19.337Z,15.82
2023-01-19T02:47:49.130Z,16.90
2023-01-19T02:50:43.639Z,17.63
2023-01-19T02:53:37.284Z,17.48
2023-01-19T02:56:16.789Z,18.67
2023-01-19T02:58:52.991Z,14.80
2023-01-19T03:01:29.141Z,18.10
2023-01-19T03:04:01.871Z,18.60
2023-01-19T03:06:40.202Z,15.83
2023-01-19T03:09:15.806Z,16.08
2023-01-19T03:11:49.514Z,14.18
2023-01-19T03:14:23.594Z,19.05
2023-01-19T03:16:55.177Z,13.93
2023-01-19T03:19:28.101Z,15.82
2023-01-19T03:21:59.373Z,16.48
2023-01-19T03:24:31.866Z,17.58
2023-01-19T03:27:04.686Z,16.00
2023-01-19T03:29:35.847Z,16.60
2023-01-19T03:32:10.246Z,14.23
2023-01-19T03:34:40.046Z,15.85
2023-01-19T03:37:09.463Z,14.52
2023-01-19T03:39:37.228Z,14.85
2023-01-19T03:42:10.020Z,14.38
2023-01-19T03:44:42.347Z,13.43
2023-01-19T03:47:12.570Z,16.00
2023-01-19T03:49:43.204Z,13.40
2023-01-19T03:52:12.805Z,13.35
2023-01-19T03:54:41.144Z,15.20
2023-01-19T03:57:10.038Z,14.75
2023-01-19T03:59:38.977Z,11.80
2023-01-19T04:02:06.847Z,14.35
2023-01-19T04:04:34.688Z,13.43
2023-01-19T04:07:02.464Z,12.63
2023-01-19T04:09:30.062Z,14.55
2023-01-19T04:11:57.770Z,13.75
2023-01-19T04:14:25.321Z,14.32
2023-01-19T04:16:54.397Z,15.02
2023-01-19T04:19:21.955Z,14.00
2023-01-19T04:21:50.724Z,11.82
2023-01-19T04:24:18.494Z,12.70
2023-01-19T04:26:46.093Z,12.65
2023-01-19T04:29:14.250Z,13.20
2023-01-19T04:31:41.799Z,12.77
2023-01-19T04:34:11.143Z,14.15
2023-01-19T04:36:38.675Z,14.65
2023-01-19T04:39:08.380Z,12.02
2023-01-19T04:41:36.123Z,15.30
2023-01-19T04:44:03.854Z,14.90
2023-01-19T04:46:31.846Z,15.00
2023-01-19T04:49:00.450Z,15.37
2023-01-19T04:51:29.561Z,14.02
2023-01-19T04:53:57.785Z,15.17
2023-01-19T04:56:25.393Z,15.10
2023-01-19T04:58:52.950Z,14.65
2023-01-19T05:01:20.668Z,12.70
2023-01-19T05:03:48.320Z,14.02
2023-01-19T05:06:16.089Z,14.15
2023-01-19T05:08:45.545Z,14.90
2023-01-19T05:11:13.224Z,15.45
2023-01-19T05:13:40.763Z,14.13
2023-01-19T05:16:09.008Z,12.25
2023-01-19T05:18:37.147Z,13.77
2023-01-19T05:21:05.000Z,13.48
2023-01-19T05:23:32.937Z,14.98
2023-01-19T05:26:03.278Z,15.38
2023-01-19T05:28:31.994Z,14.35
2023-01-19T05:30:59.735Z,14.20
2023-01-19T05:33:27.733Z,14.73
2023-01-19T05:35:55.879Z,14.77
2023-01-19T05:38:34.570Z,13.80
2023-01-19T05:41:04.318Z,14.23
2023-01-19T05:43:32.122Z,14.82
2023-01-19T05:45:59.770Z,18.88
2023-01-19T05:48:27.340Z,23.53
2023-01-19T05:50:58.794Z,28.40
2023-01-19T05:53:26.791Z,25.75
2023-01-19T05:55:54.417Z,26.25
2023-01-19T05:58:23.427Z,17.75
2023-01-19T06:00:51.107Z,15.45
2023-01-19T06:03:18.856Z,14.13
2023-01-19T06:05:46.444Z,13.48
2023-01-19T06:08:14.273Z,17.43
2023-01-19T06:10:42.025Z,17.85
2023-01-19T06:13:11.082Z,18.05
2023-01-19T06:15:39.975Z,15.30
2023-01-19T06:18:07.561Z,15.98
2023-01-19T06:20:35.096Z,16.23
2023-01-19T06:23:02.975Z,14.95
2023-01-19T06:25:30.703Z,15.35
2023-01-19T06:27:58.272Z,11.55
2023-01-19T06:30:25.982Z,12.10
2023-01-19T06:32:55.592Z,11.82
2023-01-19T06:35:23.139Z,11.63
2023-01-19T06:37:50.928Z,13.25
2023-01-19T06:40:18.854Z,14.55
2023-01-19T06:42:46.373Z,15.40
2023-01-19T06:45:13.926Z,13.77
2023-01-19T06:47:41.501Z,14.20
2023-01-19T06:50:11.865Z,14.43
2023-01-19T06:52:42.346Z,14.15
2023-01-19T06:55:10.760Z,15.05
2023-01-19T06:57:38.877Z,15.13
2023-01-19T07:00:08.816Z,13.70
2023-01-19T07:02:37.060Z,13.90
2023-01-19T07:05:06.859Z,17.50
2023-01-19T07:07:35.820Z,13.77
2023-01-19T07:10:03.462Z,14.57
2023-01-19T07:12:31.471Z,16.05
2023-01-19T07:14:59.219Z,16.58
2023-01-19T07:17:27.072Z,17.05
2023-01-19T07:19:54.629Z,14.50
2023-01-19T07:22:22.207Z,15.57
2023-01-19T07:24:51.117Z,16.23
2023-01-19T07:27:18.675Z,15.27
2023-01-19T07:29:46.262Z,15.75
2023-01-19T07:32:14.664Z,14.35
2023-01-19T07:34:42.285Z,15.97
2023-01-19T07:37:09.927Z,14.55
2023-01-19T07:39:37.553Z,15.70
2023-01-19T07:42:06.629Z,15.98
2023-01-19T07:44:34.390Z,20.15
2023-01-19T07:47:02.023Z,18.67
2023-01-19T07:49:29.742Z,24.77
2023-01-19T07:51:57.319Z,24.42
2023-01-19T07:54:25.277Z,16.02
2023-01-19T07:56:55.039Z,15.18
2023-01-19T07:59:24.371Z,14.18
2023-01-19T08:01:53.395Z,14.10
2023-01-19T08:04:21.137Z,14.68
2023-01-19T08:06:49.178Z,13.90
2023-01-19T08:09:16.760Z,16.67
2023-01-19T08:11:44.539Z,16.95
2023-01-19T08:14:12.344Z,23.83
2023-01-19T08:16:41.263Z,14.85
2023-01-19T08:19:08.940Z,17.92
2023-01-19T08:21:38.393Z,16.15
2023-01-19T08:24:06.583Z,16.48
2023-01-19T08:26:36.571Z,13.23
2023-01-19T08:29:06.911Z,12.50
2023-01-19T08:31:34.735Z,14.93
2023-01-19T08:34:03.829Z,17.70
2023-01-19T08:36:31.489Z,19.48
2023-01-19T08:38:59.316Z,14.77
2023-01-19T08:41:27.385Z,13.43
2023-01-19T08:43:55.008Z,13.88
2023-01-19T08:46:22.996Z,13.07
2023-01-19T08:48:50.745Z,11.67
2023-01-19T08:51:20.447Z,11.77
2023-01-19T08:53:48.038Z,13.52
2023-01-19T08:56:15.991Z,12.93
2023-01-19T08:58:46.684Z,13.73
2023-01-19T09:01:18.541Z,12.73
2023-01-19T09:03:46.214Z,12.95
2023-01-19T09:06:17.010Z,20.77
2023-01-19T09:08:45.978Z,13.43
2023-01-19T09:11:16.364Z,12.57
2023-01-19T09:13:44.083Z,14.07
2023-01-19T09:16:13.287Z,12.68
2023-01-19T09:18:41.074Z,14.73
2023-01-19T09:21:09.184Z,13.75
2023-01-19T09:23:37.261Z,11.07
2023-01-19T09:26:07.080Z,13.63
2023-01-19T09:28:34.961Z,11.40
2023-01-19T09:31:07.425Z,11.57
2023-01-19T09:33:35.896Z,12.65
2023-01-19T09:36:03.437Z,10.75
2023-01-19T09:38:32.859Z,11.30
2023-01-19T09:41:02.023Z,9.13
2023-01-19T09:43:38.316Z,10.40
2023-01-19T09:46:11.639Z,9.27
2023-01-19T09:48:48.054Z,9.88
2023-01-19T09:51:22.892Z,9.23
2023-01-19T09:53:56.630Z,9.52
2023-01-19T09:56:25.405Z,11.00
2023-01-19T09:58:54.403Z,8.85
2023-01-19T10:01:40.383Z,8.60
2023-01-19T10:04:26.853Z,8.18
2023-01-19T10:07:04.547Z,7.95
2023-01-19T10:09:39.279Z,8.90
2023-01-19T10:12:17.947Z,7.83
2023-01-19T10:14:54.911Z,7.60
2023-01-19T10:17:39.507Z,8.27
2023-01-19T10:20:15.827Z,6.82
2023-01-19T10:22:44.492Z,7.80
2023-01-19T10:25:18.520Z,6.55
2023-01-19T10:27:47.359Z,6.75
2023-01-19T10:30:23.256Z,6.78
2023-01-19T10:32:51.818Z,5.90
2023-01-19T10:35:25.532Z,7.10
2023-01-19T10:37:56.231Z,7.40
2023-01-19T10:40:31.939Z,7.63
2023-01-19T10:42:59.950Z,8.85
2023-01-19T10:45:32.028Z,6.82
2023-01-19T10:48:07.218Z,6.65
2023-01-19T10:50:39.493Z,6.78
2023-01-19T10:53:19.034Z,6.85
2023-01-19T10:55:47.379Z,8.13
2023-01-19T10:58:28.982Z,6.65
2023-01-19T11:01:14.153Z,7.30
2023-01-19T11:03:41.986Z,7.80
2023-01-19T11:06:31.409Z,9.55
2023-01-19T11:09:13.450Z,8.98
2023-01-19T11:11:50.051Z,6.78
2023-01-19T11:14:20.773Z,6.95
2023-01-19T11:16:52.690Z,6.43
2023-01-19T11:19:23.217Z,6.33
2023-01-19T11:21:50.966Z,7.00
2023-01-19T11:24:18.666Z,7.38
2023-01-19T11:26:49.008Z,6.45
2023-01-19T11:29:21.021Z,5.93
2023-01-19T11:31:50.778Z,7.00
2023-01-19T11:34:27.601Z,7.47
2023-01-19T11:37:00.180Z,5.30
2023-01-19T11:39:29.619Z,4.65
2023-01-19T11:41:59.978Z,5.20
2023-01-19T11:44:32.175Z,6.72
2023-01-19T11:47:05.098Z,7.28
2023-01-19T11:49:41.372Z,6.78
2023-01-19T11:52:20.716Z,5.97
2023-01-19T11:54:55.606Z,5.63
2023-01-19T11:57:23.381Z,7.05
2023-01-19T11:59:50.980Z,6.22
2023-01-19T12:02:27.526Z,6.73
2023-01-19T12:05:00.287Z,5.53
2023-01-19T12:07:31.990Z,8.30
2023-01-19T12:10:08.437Z,6.05
2023-01-19T12:12:40.406Z,5.70
2023-01-19T12:15:18.431Z,9.80
2023-01-19T12:17:50.865Z,9.77
2023-01-19T12:20:28.007Z,7.50
2023-01-19T12:23:03.876Z,7.68
2023-01-19T12:25:43.099Z,7.10
2023-01-19T12:28:13.525Z,8.07
2023-01-19T12:30:41.358Z,7.72
2023-01-19T12:33:34.205Z,5.43
2023-01-19T12:36:04.038Z,7.30
2023-01-19T12:38:44.010Z,6.75
2023-01-19T12:41:24.313Z,7.35
2023-01-19T12:44:16.748Z,8.15
2023-01-19T12:46:45.974Z,7.65
2023-01-19T12:49:29.230Z,7.35
2023-01-19T12:52:18.397Z,6.60
2023-01-19T12:54:54.649Z,7.00
2023-01-19T12:57:27.971Z,9.55
2023-01-19T13:00:00.944Z,6.95
2023-01-19T13:02:47.369Z,7.85
2023-01-19T13:05:23.720Z,9.87
2023-01-19T13:08:31.208Z,9.30
2023-01-19T13:11:26.326Z,11.85
2023-01-19T13:14:35.455Z,10.30
2023-01-19T13:17:06.475Z,9.02
2023-01-19T13:19:44.115Z,9.02
2023-01-19T13:22:49.399Z,8.40
2023-01-19T13:25:30.304Z,13.15
2023-01-19T13:27:58.380Z,10.93
2023-01-19T13:30:29.175Z,11.82
2023-01-19T13:33:02.521Z,12.25
2023-01-19T13:35:30.496Z,11.18
2023-01-19T13:37:59.825Z,11.68
2023-01-19T13:40:37.571Z,12.00
2023-01-19T13:43:15.758Z,8.80
2023-01-19T13:45:51.124Z,7.95
2023-01-19T13:48:23.291Z,8.83
2023-01-19T13:51:02.478Z,9.03
2023-01-19T13:53:30.562Z,10.55
2023-01-19T13:56:17.375Z,9.52
2023-01-19T13:58:45.181Z,8.50
2023-01-19T14:01:23.567Z,11.60
2023-01-19T14:03:52.380Z,8.18
2023-01-19T14:06:32.108Z,7.45
2023-01-19T14:09:10.378Z,6.70
2023-01-19T14:11:39.313Z,9.40
2023-01-19T14:14:23.435Z,8.23
2023-01-19T14:16:51.215Z,11.48
2023-01-19T14:19:18.778Z,7.50
2023-01-19T14:21:46.426Z,10.38
2023-01-19T14:24:18.610Z,10.70
2023-01-19T14:26:49.140Z,8.77
2023-01-19T14:29:22.672Z,7.68
2023-01-19T14:31:52.646Z,7.63
2023-01-19T14:34:38.807Z,7.93
2023-01-19T14:37:16.694Z,5.97
2023-01-19T14:39:49.061Z,8.57
2023-01-19T14:42:25.366Z,8.32
2023-01-19T14:44:54.470Z,7.57
2023-01-19T14:47:32.257Z,10.48
2023-01-19T14:50:04.902Z,8.45
2023-01-19T14:52:35.995Z,8.15
2023-01-19T14:55:08.167Z,8.07
2023-01-19T14:57:37.879Z,9.05
2023-01-19T15:00:17.679Z,6.00
2023-01-19T15:02:45.521Z,8.20
2023-01-19T15:05:13.821Z,8.98
2023-01-19T15:07:44.407Z,8.35
2023-01-19T15:10:17.738Z,7.80
2023-01-19T15:12:46.874Z,7.25
2023-01-19T15:15:16.607Z,6.90
2023-01-19T15:17:44.669Z,7.55
2023-01-19T15:20:18.499Z,7.32
2023-01-19T15:22:46.728Z,9.55
2023-01-19T15:25:15.867Z,12.00
2023-01-19T15:27:44.030Z,11.93
2023-01-19T15:30:18.500Z,7.43
2023-01-19T15:32:46.649Z,11.13
2023-01-19T15:35:16.355Z,18.05
2023-01-19T15:37:43.986Z,10.03
2023-01-19T15:40:12.442Z,9.02
2023-01-19T15:42:40.293Z,7.82
2023-01-19T15:45:34.860Z,9.02
2023-01-19T15:48:04.979Z,9.55
2023-01-19T15:50:32.968Z,8.10
2023-01-19T15:53:00.569Z,9.48
2023-01-19T15:55:28.824Z,8.95
2023-01-19T15:58:01.210Z,8.00
2023-01-19T16:00:31.116Z,8.38
2023-01-19T16:02:59.659Z,9.68
2023-01-19T16:05:41.513Z,20.58
2023-01-19T16:08:10.286Z,11.20
2023-01-19T16:10:37.863Z,10.20
2023-01-19T16:13:05.554Z,12.50
2023-01-19T16:15:36.250Z,13.10
2023-01-19T16:18:04.255Z,29.67
2023-01-19T16:20:31.998Z,15.73
2023-01-19T16:23:13.772Z,16.58
2023-01-19T16:25:42.363Z,66.60
2023-01-19T16:28:09.967Z,75.40
2023-01-19T16:30:38.927Z,40.65
2023-01-19T16:33:06.636Z,21.10
2023-01-19T16:35:34.395Z,20.70
2023-01-19T16:38:02.070Z,19.17
2023-01-19T16:40:29.710Z,20.23
2023-01-19T16:42:57.309Z,19.38
2023-01-19T16:45:25.313Z,20.80
2023-01-19T16:47:54.246Z,6.63
2023-01-19T16:50:21.817Z,75.57
2023-01-19T16:52:50.572Z,63.93
2023-01-19T16:55:18.391Z,9.15
2023-01-19T16:57:45.970Z,23.35
2023-01-19T17:00:14.675Z,33.97
2023-01-19T17:02:43.038Z,33.47
2023-01-19T17:05:12.470Z,13.13
2023-01-19T17:07:40.226Z,9.48
2023-01-19T17:10:09.594Z,14.23
2023-01-19T17:12:37.574Z,18.23
2023-01-19T17:15:06.078Z,18.60
2023-01-19T17:17:34.890Z,11.85
2023-01-19T17:20:03.492Z,24.87
2023-01-19T17:22:32.411Z,28.75
2023-01-19T17:25:00.010Z,32.20
2023-01-19T17:27:27.667Z,18.50
2023-01-19T17:29:55.233Z,30.27
2023-01-19T17:32:22.858Z,44.28
2023-01-19T17:34:50.618Z,19.52
2023-01-19T17:37:18.264Z,44.22
2023-01-19T17:39:47.212Z,31.58
2023-01-19T17:42:14.760Z,57.50
2023-01-19T17:44:42.847Z,32.72
2023-01-19T17:47:10.443Z,18.50
2023-01-19T17:49:38.102Z,21.55
2023-01-19T17:52:06.078Z,17.30
2023-01-19T17:54:33.800Z,12.20
2023-01-19T17:57:02.768Z,13.70
2023-01-19T17:59:30.461Z,12.25
2023-01-19T18:01:58.021Z,17.38
2023-01-19T18:04:25.730Z,30.77
2023-01-19T18:06:53.434Z,14.55
2023-01-19T18:09:21.059Z,14.57
2023-01-19T18:11:48.657Z,12.63
2023-01-19T18:14:17.581Z,14.68
2023-01-19T18:16:45.244Z,12.05
2023-01-19T18:19:12.847Z,11.73
2023-01-19T18:21:40.539Z,12.38
2023-01-19T18:24:08.590Z,33.72
2023-01-19T18:26:37.561Z,14.15
2023-01-19T18:29:05.253Z,14.25
2023-01-19T18:31:34.363Z,15.20
2023-01-19T18:34:02.198Z,28.92
2023-01-19T18:36:31.873Z,38.50
2023-01-19T18:38:59.463Z,151.70
2023-01-19T18:41:28.998Z,164.75
2023-01-19T18:43:58.717Z,128.00
2023-01-19T18:46:27.326Z,93.93
2023-01-19T18:48:56.384Z,68.60
2023-01-19T18:51:24.034Z,62.90
2023-01-19T18:53:51.685Z,72.53
2023-01-19T18:56:19.333Z,31.08
2023-01-19T18:58:47.146Z,69.22
2023-01-19T19:01:20.595Z,77.18
2023-01-19T19:03:48.336Z,55.17
2023-01-19T19:06:20.488Z,35.38
2023-01-19T19:08:50.038Z,23.67
2023-01-19T19:11:17.804Z,31.98
2023-01-19T19:13:45.638Z,13.90
2023-01-19T19:16:14.307Z,14.13
2023-01-19T19:18:42.181Z,23.90
2023-01-19T19:21:11.456Z,53.10
2023-01-19T19:23:40.483Z,39.72
2023-01-19T19:26:10.569Z,19.60
2023-01-19T19:28:39.307Z,96.05
2023-01-19T19:31:09.161Z,76.95
2023-01-19T19:33:37.644Z,286.33
2023-01-19T19:36:06.761Z,150.88
2023-01-19T19:38:36.783Z,47.05
2023-01-19T19:41:12.575Z,26.80
2023-01-19T19:43:40.887Z,22.02
2023-01-19T19:46:10.468Z,17.27
2023-01-19T19:48:39.481Z,79.68
2023-01-19T19:51:17.716Z,25.40
2023-01-19T19:53:46.448Z,23.50
2023-01-19T19:56:15.997Z,43.70
2023-01-19T19:58:44.173Z,18.58
2023-01-19T20:01:13.857Z,20.60
2023-01-19T20:03:42.031Z,16.95
2023-01-19T20:06:11.892Z,18.13
2023-01-19T20:08:39.645Z,15.77
2023-01-19T20:11:09.369Z,22.10
2023-01-19T20:13:39.758Z,19.27
2023-01-19T20:16:10.870Z,17.70
2023-01-19T20:18:39.703Z,14.05
2023-01-19T20:21:12.514Z,15.10
2023-01-19T20:23:40.303Z,17.73
2023-01-19T20:26:09.390Z,21.98
2023-01-19T20:28:39.423Z,24.00
2023-01-19T20:31:12.338Z,17.73
2023-01-19T20:33:40.146Z,14.38
2023-01-19T20:36:08.638Z,13.93
2023-01-19T20:38:36.527Z,13.57
2023-01-19T20:41:04.672Z,15.10
2023-01-19T20:43:32.657Z,18.83
2023-01-19T20:46:02.246Z,18.27
2023-01-19T20:48:30.172Z,12.77
2023-01-19T20:51:01.682Z,13.82
2023-01-19T20:53:30.498Z,31.50
2023-01-19T20:55:58.238Z,42.45
2023-01-19T20:58:26.117Z,40.20
2023-01-19T21:00:53.747Z,24.87
2023-01-19T21:03:22.823Z,31.48
2023-01-19T21:05:50.796Z,20.93
2023-01-19T21:08:18.665Z,24.03
2023-01-19T21:10:46.365Z,25.03
2023-01-19T21:13:14.156Z,17.20
2023-01-19T21:15:41.729Z,30.65
2023-01-19T21:18:09.304Z,16.77
2023-01-19T21:20:38.398Z,14.35
2023-01-19T21:23:05.965Z,18.80
2023-01-19T21:25:33.632Z,20.77
2023-01-19T21:28:01.214Z,33.95
2023-01-19T21:30:29.497Z,23.08
2023-01-19T21:32:57.147Z,25.13
2023-01-19T21:35:24.771Z,35.28
2023-01-19T21:37:53.907Z,34.72
2023-01-19T21:40:21.573Z,36.78
2023-01-19T21:42:49.104Z,39.60
2023-01-19T21:45:17.516Z,46.38
2023-01-19T21:47:45.087Z,28.17
2023-01-19T21:50:13.246Z,25.90
2023-01-19T21:52:40.843Z,14.38
2023-01-19T21:55:10.553Z,10.73
2023-01-19T21:57:38.295Z,13.20
2023-01-19T22:00:08.009Z,13.13
2023-01-19T22:02:38.912Z,11.45
2023-01-19T22:05:07.511Z,14.20
2023-01-19T22:07:35.060Z,12.10
2023-01-19T22:10:02.635Z,17.52
2023-01-19T22:12:32.707Z,16.08
2023-01-19T22:15:00.237Z,14.03
2023-01-19T22:17:27.787Z,11.45
2023-01-19T22:19:55.429Z,11.05
2023-01-19T22:22:23.174Z,10.90
2023-01-19T22:24:50.864Z,10.63
2023-01-19T22:27:18.610Z,10.02
2023-01-19T22:29:47.985Z,10.88
2023-01-19T22:32:15.663Z,10.88
2023-01-19T22:34:43.260Z,13.03
2023-01-19T22:37:10.826Z,10.93
2023-01-19T22:39:38.429Z,10.90
2023-01-19T22:42:06.067Z,10.73
2023-01-19T22:44:33.648Z,12.33
2023-01-19T22:47:02.612Z,12.60
2023-01-19T22:49:30.410Z,15.75
2023-01-19T22:51:58.155Z,24.85
2023-01-19T22:54:25.694Z,13.70
2023-01-19T22:56:53.327Z,12.80
2023-01-19T22:59:20.951Z,14.40
2023-01-19T23:01:50.555Z,14.75
2023-01-19T23:04:19.754Z,13.57
2023-01-19T23:06:50.506Z,12.70
2023-01-19T23:09:18.807Z,12.85
2023-01-19T23:11:50.442Z,12.02
2023-01-19T23:14:20.325Z,11.82
2023-01-19T23:16:48.024Z,13.98
2023-01-19T23:19:17.072Z,14.03
2023-01-19T23:21:46.835Z,14.63
2023-01-19T23:24:14.418Z,13.70
2023-01-19T23:26:41.972Z,15.25
2023-01-19T23:29:12.775Z,13.82
2023-01-19T23:31:43.715Z,14.40
2023-01-19T23:34:13.083Z,17.17
2023-01-19T23:36:42.427Z,19.03
2023-01-19T23:39:15.507Z,21.70
2023-01-19T23:41:43.086Z,18.17
2023-01-19T23:44:10.945Z,19.92
2023-01-19T23:46:38.714Z,19.17
2023-01-19T23:49:06.589Z,20.27
2023-01-19T23:51:34.606Z,27.33
2023-01-19T23:54:02.828Z,21.10
2023-01-19T23:56:33.927Z,21.53
2023-01-19T23:59:04.270Z,23.27
